createdAt,value
2022-10-09T00:03:34.120Z,6.60
2022-10-09T00:08:39.357Z,6.60
2022-10-09T00:13:43.987Z,6.50
2022-10-09T00:18:47.824Z,6.30
2022-10-09T00:23:52.249Z,6.10
2022-10-09T00:28:56.701Z,6.20
2022-10-09T00:33:59.716Z,6.20
2022-10-09T00:39:02.621Z,6.10
2022-10-09T00:44:38.764Z,6.20
2022-10-09T00:49:43.145Z,6.20
2022-10-09T00:54:46.213Z,6.20
2022-10-09T00:59:49.252Z,6.10
2022-10-09T01:04:53.515Z,5.90
2022-10-09T01:10:01.657Z,5.90
2022-10-09T01:15:12.972Z,5.80
2022-10-09T01:20:35.534Z,5.80
2022-10-09T01:25:53.825Z,5.70
2022-10-09T01:31:01.101Z,5.60
2022-10-09T01:36:05.460Z,5.60
2022-10-09T01:41:10.071Z,5.50
2022-10-09T01:46:23.424Z,5.40
2022-10-09T01:51:31.252Z,5.30
2022-10-09T01:56:37.594Z,5.30
2022-10-09T02:01:43.584Z,5.30
2022-10-09T02:06:48.711Z,5.30
2022-10-09T02:11:56.415Z,5.10
2022-10-09T02:17:07.179Z,5.00
2022-10-09T02:22:17.383Z,4.90
2022-10-09T02:27:22.023Z,4.90
2022-10-09T02:32:26.650Z,4.50
2022-10-09T02:37:29.574Z,4.70
2022-10-09T02:42:32.486Z,4.70
2022-10-09T02:47:36.757Z,4.70
2022-10-09T02:52:39.699Z,4.90
2022-10-09T02:57:42.725Z,4.70
2022-10-09T03:02:47.442Z,4.90
2022-10-09T03:07:53.136Z,4.70
2022-10-09T03:12:56.150Z,4.70
2022-10-09T03:18:00.486Z,4.70
2022-10-09T03:23:03.423Z,4.70
2022-10-09T03:28:06.426Z,4.50
2022-10-09T03:33:10.742Z,4.40
2022-10-09T03:38:13.776Z,4.30
2022-10-09T03:43:17.306Z,4.30
2022-10-09T03:48:21.937Z,4.30
2022-10-09T03:53:25.309Z,4.10
2022-10-09T03:58:28.084Z,4.10
2022-10-09T04:03:32.543Z,4.20
2022-10-09T04:08:36.759Z,4.00
2022-10-09T04:13:39.689Z,4.00
2022-10-09T04:18:45.535Z,4.30
2022-10-09T04:23:48.460Z,4.20
2022-10-09T04:28:51.461Z,4.20
2022-10-09T04:33:57.261Z,4.30
2022-10-09T04:39:00.217Z,4.40
2022-10-09T04:44:03.181Z,4.50
2022-10-09T04:49:07.477Z,4.50
2022-10-09T04:54:10.614Z,4.50
2022-10-09T04:59:13.672Z,4.60
2022-10-09T05:04:17.942Z,4.70
2022-10-09T05:09:20.886Z,4.70
2022-10-09T05:14:24.254Z,4.50
2022-10-09T05:19:29.264Z,4.50
2022-10-09T05:24:32.301Z,4.50
2022-10-09T05:29:35.205Z,4.50
2022-10-09T05:34:39.466Z,4.50
2022-10-09T05:39:42.407Z,4.50
2022-10-09T05:44:45.329Z,4.50
2022-10-09T05:49:49.599Z,4.50
2022-10-09T05:54:52.507Z,4.50
2022-10-09T05:59:55.484Z,4.60
2022-10-09T06:04:59.757Z,4.50
2022-10-09T06:10:02.699Z,4.40
2022-10-09T06:15:06.301Z,4.50
2022-10-09T06:20:11.038Z,4.80
2022-10-09T06:25:13.971Z,4.70
2022-10-09T06:30:16.993Z,5.50
2022-10-09T06:35:21.281Z,5.70
2022-10-09T06:40:24.229Z,6.10
2022-10-09T06:45:27.211Z,5.50
2022-10-09T06:50:31.555Z,5.20
2022-10-09T06:55:34.523Z,5.20
2022-10-09T07:00:37.502Z,5.30
2022-10-09T07:05:41.833Z,5.30
2022-10-09T07:10:44.786Z,5.50
2022-10-09T07:15:47.844Z,5.30
2022-10-09T07:20:52.259Z,5.40
2022-10-09T07:25:55.216Z,5.40
2022-10-09T07:30:58.269Z,5.50
2022-10-09T07:36:04.804Z,5.50
2022-10-09T07:41:10.074Z,5.70
2022-10-09T07:46:14.691Z,6.00
2022-10-09T07:51:21.195Z,6.20
2022-10-09T07:56:26.160Z,6.10
2022-10-09T08:01:30.457Z,6.40
2022-10-09T08:06:35.577Z,6.40
2022-10-09T08:11:40.648Z,6.20
2022-10-09T08:16:43.664Z,6.40
2022-10-09T08:21:47.987Z,6.80
2022-10-09T08:26:50.934Z,6.90
2022-10-09T08:31:54.457Z,6.70
2022-10-09T08:36:58.763Z,6.90
2022-10-09T08:42:03.391Z,7.00
2022-10-09T08:47:10.378Z,7.20
2022-10-09T08:52:37.775Z,7.10
2022-10-09T08:57:41.414Z,7.80
2022-10-09T09:03:08.858Z,7.70
2022-10-09T09:08:26.660Z,8.00
2022-10-09T09:13:46.414Z,8.30
2022-10-09T09:18:57.406Z,8.50
2022-10-09T09:24:04.042Z,8.60
2022-10-09T09:29:07.302Z,9.10
2022-10-09T09:34:15.689Z,9.00
2022-10-09T09:44:50.880Z,9.00
2022-10-09T09:49:55.973Z,9.60
2022-10-09T09:55:00.626Z,10.00
2022-10-09T10:00:21.494Z,10.50
2022-10-09T10:05:27.317Z,10.80
2022-10-09T10:10:36.444Z,11.10
2022-10-09T10:15:39.471Z,11.50
2022-10-09T10:20:45.813Z,11.80
2022-10-09T10:25:51.500Z,12.10
2022-10-09T10:30:58.824Z,12.30
2022-10-09T10:36:02.360Z,12.80
2022-10-09T10:41:15.533Z,12.80
2022-10-09T10:46:24.572Z,12.90
2022-10-09T10:51:53.854Z,12.90
2022-10-09T10:57:16.824Z,13.30
2022-10-09T11:02:48.868Z,13.30
2022-10-09T11:08:04.975Z,13.50
2022-10-09T11:13:14.998Z,13.90
2022-10-09T11:18:31.975Z,13.60
2022-10-09T11:23:48.517Z,14.20
2022-10-09T11:28:58.901Z,14.20
2022-10-09T11:34:06.688Z,13.90
2022-10-09T11:39:16.414Z,13.40
2022-10-09T11:44:36.657Z,13.00
2022-10-09T11:49:57.822Z,14.10
2022-10-09T11:55:08.858Z,14.00
2022-10-09T12:00:15.191Z,13.90
2022-10-09T12:05:28.930Z,13.70
2022-10-09T12:10:34.409Z,13.90
2022-10-09T12:15:46.890Z,13.90
2022-10-09T12:20:51.736Z,14.10
2022-10-09T12:25:55.881Z,13.80
2022-10-09T12:31:02.216Z,13.90
2022-10-09T12:36:12.592Z,13.90
2022-10-09T12:41:23.035Z,14.10
2022-10-09T12:46:34.194Z,14.10
2022-10-09T12:51:37.146Z,13.90
2022-10-09T12:56:40.701Z,13.90
2022-10-09T13:01:46.583Z,13.90
2022-10-09T13:06:51.485Z,13.90
2022-10-09T13:11:57.646Z,14.00
2022-10-09T13:17:02.353Z,13.90
2022-10-09T13:22:17.130Z,13.90
2022-10-09T13:27:20.893Z,13.50
2022-10-09T13:32:25.742Z,13.50
2022-10-09T13:37:28.704Z,13.50
2022-10-09T13:42:36.602Z,13.30
2022-10-09T13:47:40.955Z,13.30
2022-10-09T13:52:43.931Z,13.30
2022-10-09T13:57:48.322Z,13.30
2022-10-09T14:02:52.888Z,13.30
2022-10-09T14:07:56.193Z,13.30
2022-10-09T14:12:59.279Z,13.20
2022-10-09T14:18:03.556Z,13.30
2022-10-09T14:23:06.623Z,13.30
2022-10-09T14:28:09.614Z,13.20
2022-10-09T14:33:13.952Z,13.10
2022-10-09T14:38:16.906Z,13.20
2022-10-09T14:43:20.065Z,13.10
2022-10-09T14:48:24.497Z,13.00
2022-10-09T14:53:27.417Z,13.10
2022-10-09T14:58:31.381Z,13.00
2022-10-09T15:03:37.019Z,13.00
2022-10-09T15:08:42.048Z,12.90
2022-10-09T15:13:44.997Z,12.90
2022-10-09T15:18:50.916Z,12.90
2022-10-09T15:23:55.695Z,12.90
2022-10-09T15:28:58.662Z,12.80
2022-10-09T15:34:03.603Z,12.80
2022-10-09T15:39:07.886Z,13.10
2022-10-09T15:44:16.523Z,13.00
2022-10-09T15:49:20.824Z,12.50
2022-10-09T15:54:23.915Z,12.40
2022-10-09T15:59:26.928Z,12.40
2022-10-09T16:04:31.212Z,12.30
2022-10-09T16:09:34.282Z,12.40
2022-10-09T16:14:38.241Z,12.50
2022-10-09T16:19:42.568Z,12.20
2022-10-09T16:24:45.633Z,12.10
2022-10-09T16:29:48.598Z,12.10
2022-10-09T16:34:53.021Z,12.00
2022-10-09T16:39:55.958Z,11.90
2022-10-09T16:44:59.084Z,11.80
2022-10-09T16:50:03.336Z,11.70
2022-10-09T16:55:10.149Z,11.70
2022-10-09T17:00:18.156Z,11.50
2022-10-09T17:05:25.422Z,11.50
2022-10-09T17:10:28.620Z,11.50
2022-10-09T17:15:31.658Z,11.40
2022-10-09T17:20:38.607Z,11.30
2022-10-09T17:25:43.161Z,11.20
2022-10-09T17:30:46.291Z,11.20
2022-10-09T17:35:50.678Z,11.10
2022-10-09T17:40:53.944Z,11.00
2022-10-09T17:45:56.880Z,11.00
2022-10-09T17:51:12.212Z,11.20
2022-10-09T17:56:15.627Z,11.30
2022-10-09T18:01:18.975Z,11.10
2022-10-09T18:06:26.661Z,11.30
2022-10-09T18:11:30.161Z,11.40
2022-10-09T18:16:37.862Z,11.30
2022-10-09T18:21:44.230Z,11.20
2022-10-09T18:26:47.197Z,11.00
2022-10-09T18:31:50.570Z,10.90
2022-10-09T18:36:54.881Z,10.90
2022-10-09T18:41:58.318Z,10.90
2022-10-09T18:47:01.509Z,11.00
2022-10-09T18:52:06.411Z,11.00
2022-10-09T18:57:10.035Z,10.90
2022-10-09T19:02:13.050Z,10.80
2022-10-09T19:07:17.691Z,10.80
2022-10-09T19:12:21.049Z,10.60
2022-10-09T19:17:23.948Z,10.60
2022-10-09T19:22:28.326Z,10.70
2022-10-09T19:27:32.527Z,10.60
2022-10-09T19:32:35.722Z,10.60
2022-10-09T19:37:40.805Z,10.30
2022-10-09T19:42:43.712Z,10.30
2022-10-09T19:47:49.115Z,10.30
2022-10-09T19:52:57.265Z,10.30
2022-10-09T19:58:00.575Z,10.30
2022-10-09T20:03:04.918Z,10.20
2022-10-09T20:08:12.117Z,10.10
2022-10-09T20:13:15.159Z,10.10
2022-10-09T20:18:18.784Z,10.00
2022-10-09T20:23:24.073Z,9.90
2022-10-09T20:28:32.552Z,9.80
2022-10-09T20:33:38.948Z,9.70
2022-10-09T20:38:49.212Z,9.70
2022-10-09T20:43:53.025Z,9.70
2022-10-09T20:48:56.613Z,9.80
2022-10-09T20:54:07.002Z,9.70
2022-10-09T20:59:09.984Z,9.70
2022-10-09T21:04:12.928Z,9.60
2022-10-09T21:09:17.196Z,9.60
2022-10-09T21:14:20.776Z,9.50
2022-10-09T21:19:23.794Z,9.50
2022-10-09T21:24:29.249Z,9.50
2022-10-09T21:29:32.197Z,9.50
2022-10-09T21:34:36.254Z,9.50
2022-10-09T21:39:40.495Z,9.50
2022-10-09T21:44:43.394Z,9.50
2022-10-09T21:49:46.317Z,9.50
2022-10-09T21:54:50.581Z,9.60
2022-10-09T21:59:53.565Z,9.60
2022-10-09T22:04:57.330Z,9.60
2022-10-09T22:10:01.681Z,9.40
2022-10-09T22:15:05.255Z,9.40
2022-10-09T22:20:08.972Z,9.50
2022-10-09T22:25:13.280Z,9.60
2022-10-09T22:30:16.639Z,9.70
2022-10-09T22:35:19.679Z,9.70
2022-10-09T22:40:24.027Z,9.80
2022-10-09T22:45:26.978Z,9.80
2022-10-09T22:50:29.863Z,9.70
2022-10-09T22:55:33.924Z,9.60
2022-10-09T23:00:37.561Z,9.60
2022-10-09T23:05:40.497Z,9.50
2022-10-09T23:10:44.756Z,9.50
2022-10-09T23:15:47.655Z,9.50
2022-10-09T23:20:50.430Z,9.60
2022-10-09T23:25:55.085Z,9.70
2022-10-09T23:31:01.961Z,9.70
2022-10-09T23:36:06.007Z,9.60
2022-10-09T23:41:13.172Z,9.60
2022-10-09T23:46:18.072Z,9.60
2022-10-09T23:51:22.486Z,9.50
2022-10-09T23:56:28.728Z,9.40
